Time;durP1;ratioP1;P1;durP2;ratioP2;P2;SDS_P1;SDS_P2;PMS_P1;PMS_P2;Temp;Humidity;BMP_temperature;BMP_pressure;BME280_temperature;BME280_humidity;BME280_pressure;Samples;Min_cycle;Max_cycle;Signal;HPM_P1;HPM_P2
2023/08/22 00:00:45;;;;;;;4.90;4.40;;;28.70;64.80;;;;;;5032980;28;20923;-72
2023/08/22 00:03:10;;;;;;;5.60;5.00;;;28.70;64.80;;;;;;5032897;28;20182;-72
2023/08/22 00:05:36;;;;;;;5.60;5.00;;;28.70;64.80;;;;;;5031737;28;20275;-72
2023/08/22 00:08:05;;;;;;;5.33;4.83;;;28.70;64.80;;;;;;5032749;28;20192;-72
2023/08/22 00:10:34;;;;;;;4.97;4.57;;;28.70;64.90;;;;;;5032650;28;20215;-72
2023/08/22 00:13:09;;;;;;;5.10;4.67;;;28.70;64.90;;;;;;5032678;28;20414;-72
2023/08/22 00:15:34;;;;;;;4.60;4.20;;;28.70;64.90;;;;;;5032754;28;20394;-72
2023/08/22 00:18:00;;;;;;;5.40;4.90;;;28.70;64.90;;;;;;5032566;28;20460;-72
2023/08/22 00:20:26;;;;;;;5.30;4.80;;;28.70;64.90;;;;;;5032674;28;20270;-72
2023/08/22 00:22:51;;;;;;;4.60;4.20;;;28.70;64.90;;;;;;5032656;28;20179;-72
2023/08/22 00:25:17;;;;;;;5.00;4.60;;;28.70;64.90;;;;;;5032600;28;20200;-72
2023/08/22 00:27:43;;;;;;;5.60;5.00;;;28.70;64.90;;;;;;5032821;28;20545;-73
2023/08/22 00:30:08;;;;;;;5.10;4.70;;;28.70;64.90;;;;;;5032739;28;20203;-72
2023/08/22 00:32:34;;;;;;;5.23;4.73;;;28.70;64.90;;;;;;5032577;28;20564;-72
2023/08/22 00:35:00;;;;;;;4.90;4.40;;;28.70;64.90;;;;;;5032460;28;20176;-72
2023/08/22 00:37:26;;;;;;;4.90;4.50;;;28.70;65.00;;;;;;5032270;28;20175;-72
2023/08/22 00:39:52;;;;;;;5.70;5.10;;;28.70;64.90;;;;;;5032226;28;20180;-72
2023/08/22 00:42:18;;;;;;;4.80;4.40;;;28.70;64.90;;;;;;5032423;28;20411;-72
2023/08/22 00:44:44;;;;;;;5.93;5.40;;;28.70;64.90;;;;;;5032333;28;20633;-72
2023/08/22 00:47:09;;;;;;;5.37;4.97;;;28.70;64.90;;;;;;5031982;28;20231;-72
2023/08/22 00:49:36;;;;;;;6.23;5.13;;;28.70;64.90;;;;;;5032249;28;20167;-72
2023/08/22 00:52:03;;;;;;;5.63;5.13;;;28.70;64.90;;;;;;5032308;28;20196;-72
2023/08/22 00:54:30;;;;;;;5.60;5.10;;;28.70;64.90;;;;;;5032265;28;20418;-72
2023/08/22 00:56:56;;;;;;;4.93;4.43;;;28.70;64.90;;;;;;5032202;28;20407;-72
2023/08/22 00:59:28;;;;;;;5.20;4.70;;;28.70;64.90;;;;;;5032166;28;20552;-72
2023/08/22 01:01:54;;;;;;;4.80;4.40;;;28.70;64.90;;;;;;5032347;28;20776;-72
2023/08/22 01:04:20;;;;;;;4.80;4.40;;;28.70;65.00;;;;;;5032209;28;20407;-72
2023/08/22 01:07:11;;;;;;;5.63;4.90;;;28.70;64.90;;;;;;5032152;28;20405;-72
2023/08/22 01:10:04;;;;;;;4.93;4.50;;;28.70;64.90;;;;;;5032135;28;20409;-72
2023/08/22 01:12:38;;;;;;;5.20;4.80;;;28.70;64.90;;;;;;5032352;28;20410;-72
2023/08/22 01:15:18;;;;;;;5.87;5.03;;;28.70;65.00;;;;;;5032048;28;20466;-72
2023/08/22 01:17:44;;;;;;;4.67;4.27;;;28.70;65.00;;;;;;5031939;28;20457;-72
2023/08/22 01:20:12;;;;;;;4.63;4.30;;;28.70;65.00;;;;;;5032049;28;20458;-72
2023/08/22 01:22:41;;;;;;;5.07;4.67;;;28.70;65.80;;;;;;5031887;28;20402;-72
2023/08/22 01:25:08;;;;;;;5.97;5.47;;;28.70;65.00;;;;;;5032280;28;20413;-72
2023/08/22 01:27:45;;;;;;;4.97;4.57;;;28.70;65.00;;;;;;5032040;28;20903;-73
2023/08/22 01:30:18;;;;;;;5.00;4.60;;;28.70;65.00;;;;;;5031905;28;20414;-72
2023/08/22 01:32:48;;;;;;;5.00;4.60;;;28.70;65.00;;;;;;5031917;28;20402;-72
2023/08/22 01:35:17;;;;;;;5.03;4.53;;;28.70;65.00;;;;;;5031921;28;20394;-73
2023/08/22 01:37:44;;;;;;;5.27;4.77;;;28.70;65.00;;;;;;5031725;28;20462;-72
2023/08/22 01:40:11;;;;;;;4.90;4.50;;;28.70;64.90;;;;;;5032009;28;20480;-72
2023/08/22 01:42:37;;;;;;;6.37;5.07;;;28.70;65.00;;;;;;5034251;28;20810;-72
2023/08/22 01:45:02;;;;;;;4.77;4.37;;;28.70;65.00;;;;;;5035410;28;20418;-72
2023/08/22 01:47:28;;;;;;;4.77;4.23;;;28.70;64.90;;;;;;5035408;28;20175;-72
2023/08/22 01:49:54;;;;;;;6.20;5.60;;;28.70;64.90;;;;;;5035190;28;20168;-72
2023/08/22 01:52:20;;;;;;;5.00;4.60;;;28.70;65.00;;;;;;5034381;28;20174;-72
2023/08/22 01:54:49;;;;;;;5.27;4.77;;;28.70;65.20;;;;;;5035167;28;20974;-72
2023/08/22 01:57:14;;;;;;;4.30;4.00;;;28.70;64.90;;;;;;5035312;28;20597;-72
2023/08/22 01:59:40;;;;;;;4.93;4.53;;;28.70;64.90;;;;;;5035062;28;20537;-72
2023/08/22 02:02:07;;;;;;;4.70;4.30;;;28.70;65.00;;;;;;5035293;28;20258;-72
2023/08/22 02:04:33;;;;;;;4.93;4.53;;;28.70;64.90;;;;;;5035076;28;20171;-72
2023/08/22 02:06:58;;;;;;;4.90;4.50;;;28.70;64.90;;;;;;5035120;28;20895;-72
2023/08/22 02:09:25;;;;;;;4.90;4.50;;;28.70;65.00;;;;;;5033657;28;20249;-72
2023/08/22 02:11:52;;;;;;;5.00;4.60;;;28.70;65.00;;;;;;5033565;28;20207;-72
2023/08/22 02:14:17;;;;;;;5.43;4.63;;;28.70;64.90;;;;;;5034930;28;20410;-73
2023/08/22 02:16:43;;;;;;;5.20;4.70;;;28.70;64.90;;;;;;5034954;28;20505;-72
2023/08/22 02:19:08;;;;;;;5.70;5.20;;;28.70;64.90;;;;;;5034870;28;20195;-72
2023/08/22 02:21:34;;;;;;;5.40;4.90;;;28.70;64.90;;;;;;5033596;28;20665;-72
2023/08/22 02:23:59;;;;;;;4.93;4.43;;;28.70;64.90;;;;;;5034710;28;20263;-72
2023/08/22 02:26:26;;;;;;;7.23;4.97;;;28.70;64.90;;;;;;5034890;28;20171;-72
2023/08/22 02:28:52;;;;;;;5.10;4.60;;;28.70;64.90;;;;;;5034752;28;20249;-72
2023/08/22 02:31:18;;;;;;;5.07;4.67;;;28.70;64.90;;;;;;5034554;28;20564;-72
2023/08/22 02:33:44;;;;;;;5.20;4.80;;;28.70;64.90;;;;;;5034559;28;20986;-72
2023/08/22 02:36:09;;;;;;;5.43;5.03;;;28.70;64.90;;;;;;5034602;28;20175;-72
2023/08/22 02:38:35;;;;;;;5.27;4.87;;;28.70;64.90;;;;;;5034371;28;20567;-71
2023/08/22 02:41:00;;;;;;;4.97;4.50;;;28.70;64.90;;;;;;5034426;28;20230;-72
2023/08/22 02:43:26;;;;;;;5.17;4.77;;;28.70;64.90;;;;;;5034364;28;20179;-72
2023/08/22 02:45:52;;;;;;;7.47;5.07;;;28.70;64.90;;;;;;5034349;28;20168;-71
2023/08/22 02:48:17;;;;;;;5.70;5.20;;;28.70;64.90;;;;;;5034371;28;20548;-72
2023/08/22 02:50:43;;;;;;;4.77;4.37;;;28.70;64.90;;;;;;5034362;28;20203;-71
2023/08/22 02:53:11;;;;;;;4.83;4.43;;;28.70;64.90;;;;;;5032967;28;20602;-71
2023/08/22 02:55:37;;;;;;;5.03;4.57;;;28.70;64.90;;;;;;5033256;28;20555;-72
2023/08/22 02:58:03;;;;;;;4.70;4.30;;;28.70;64.90;;;;;;5034048;28;20532;-72
2023/08/22 03:00:29;;;;;;;5.57;5.17;;;28.70;64.80;;;;;;5034022;28;20433;-71
2023/08/22 03:02:54;;;;;;;4.67;4.27;;;28.70;64.90;;;;;;5033971;28;20790;-72
2023/08/22 03:05:20;;;;;;;5.07;4.57;;;28.70;64.90;;;;;;5033914;28;20255;-72
2023/08/22 03:07:45;;;;;;;5.63;5.13;;;28.70;64.80;;;;;;5034000;28;20185;-72
2023/08/22 03:10:11;;;;;;;4.70;4.20;;;28.70;64.80;;;;;;5033629;28;20207;-72
2023/08/22 03:12:37;;;;;;;5.03;4.63;;;28.70;64.80;;;;;;5034121;28;20175;-72
2023/08/22 03:15:03;;;;;;;5.30;4.90;;;28.70;64.80;;;;;;5033690;28;20180;-72
2023/08/22 03:17:28;;;;;;;5.40;4.90;;;28.70;64.80;;;;;;5032376;28;20223;-71
2023/08/22 03:19:54;;;;;;;5.00;4.60;;;28.70;64.80;;;;;;5032375;28;20413;-71
2023/08/22 03:22:20;;;;;;;5.00;4.60;;;28.70;64.90;;;;;;5033469;28;20660;-71
2023/08/22 03:24:45;;;;;;;4.80;4.40;;;28.70;64.80;;;;;;5033640;28;20178;-71
2023/08/22 03:27:11;;;;;;;5.10;4.70;;;28.70;64.90;;;;;;5033491;28;20214;-71
2023/08/22 03:29:36;;;;;;;5.20;4.80;;;28.70;64.80;;;;;;5033551;28;20179;-71
2023/08/22 03:32:02;;;;;;;5.03;4.63;;;28.70;64.80;;;;;;5033320;28;20202;-71
2023/08/22 03:34:28;;;;;;;5.00;4.53;;;28.70;64.80;;;;;;5033521;28;20171;-71
2023/08/22 03:36:53;;;;;;;4.60;4.20;;;28.70;64.80;;;;;;5033257;28;20175;-71
2023/08/22 03:39:19;;;;;;;5.03;4.63;;;28.70;64.80;;;;;;5033340;28;20729;-72
2023/08/22 03:41:44;;;;;;;5.27;4.77;;;28.70;64.80;;;;;;5033180;28;20265;-72
2023/08/22 03:44:10;;;;;;;5.10;4.63;;;28.70;64.80;;;;;;5033244;28;20178;-72
2023/08/22 03:46:35;;;;;;;4.87;4.47;;;28.70;64.90;;;;;;5033169;28;20736;-72
2023/08/22 03:49:01;;;;;;;5.13;4.63;;;28.70;64.90;;;;;;5031844;28;20560;-72
2023/08/22 03:51:27;;;;;;;5.37;4.90;;;28.70;64.80;;;;;;5032987;28;20187;-72
2023/08/22 03:53:53;;;;;;;4.80;4.40;;;28.70;64.90;;;;;;5033032;28;20644;-72
2023/08/22 03:56:19;;;;;;;5.17;4.77;;;28.70;64.80;;;;;;5033084;28;20175;-73
2023/08/22 03:58:44;;;;;;;5.63;5.13;;;28.70;64.80;;;;;;5032968;28;20966;-72
2023/08/22 04:01:10;;;;;;;5.40;5.00;;;28.70;64.80;;;;;;5032830;28;20284;-72
2023/08/22 04:03:36;;;;;;;5.17;4.67;;;28.70;64.80;;;;;;5032828;28;20600;-71
2023/08/22 04:06:03;;;;;;;5.27;4.77;;;28.70;64.80;;;;;;5032676;28;20406;-71
2023/08/22 04:08:29;;;;;;;5.30;4.80;;;28.70;64.80;;;;;;5032793;28;20163;-71
2023/08/22 04:10:55;;;;;;;5.80;5.27;;;28.70;64.80;;;;;;5032594;28;20450;-72
2023/08/22 04:13:21;;;;;;;5.83;5.23;;;28.70;64.80;;;;;;5032541;28;20180;-72
2023/08/22 04:15:47;;;;;;;5.00;4.60;;;28.70;64.80;;;;;;5032553;28;20413;-72
2023/08/22 04:18:12;;;;;;;4.90;4.50;;;28.70;64.80;;;;;;5032397;28;20676;-70
2023/08/22 04:20:39;;;;;;;4.80;4.40;;;28.70;64.80;;;;;;5032495;28;20184;-71
2023/08/22 04:23:05;;;;;;;5.60;4.70;;;28.70;64.80;;;;;;5031091;28;20221;-71
2023/08/22 04:25:30;;;;;;;5.40;4.93;;;28.70;64.80;;;;;;5032668;28;20818;-72
2023/08/22 04:27:56;;;;;;;5.40;4.97;;;28.70;64.80;;;;;;5032374;28;20172;-71
2023/08/22 04:30:22;;;;;;;5.77;5.27;;;28.70;64.80;;;;;;5032474;28;20677;-71
2023/08/22 04:32:47;;;;;;;5.37;4.93;;;28.70;64.80;;;;;;5032653;28;20278;-71
2023/08/22 04:35:14;;;;;;;5.73;5.13;;;28.70;64.90;;;;;;5031339;28;20175;-72
2023/08/22 04:37:39;;;;;;;5.50;4.90;;;28.70;64.80;;;;;;5032583;28;20636;-71
2023/08/22 04:40:05;;;;;;;4.80;4.40;;;28.70;64.70;;;;;;5032341;28;20413;-72
2023/08/22 04:42:31;;;;;;;4.83;4.33;;;28.70;64.70;;;;;;5032759;28;20175;-72
2023/08/22 04:44:56;;;;;;;5.37;4.87;;;28.70;64.70;;;;;;5032508;28;20256;-73
2023/08/22 04:47:22;;;;;;;4.93;4.53;;;28.70;64.70;;;;;;5032176;28;20271;-73
2023/08/22 04:49:48;;;;;;;4.97;4.57;;;28.70;64.70;;;;;;5032320;28;20540;-72
2023/08/22 04:52:13;;;;;;;7.03;4.70;;;28.70;64.70;;;;;;5032343;28;20172;-72
2023/08/22 04:54:39;;;;;;;5.00;4.60;;;28.70;64.70;;;;;;5032380;28;20164;-73
2023/08/22 04:57:04;;;;;;;5.70;4.97;;;28.70;64.70;;;;;;5031014;28;20191;-73
2023/08/22 04:59:30;;;;;;;5.00;4.60;;;28.70;64.70;;;;;;5032209;28;20576;-73
2023/08/22 05:01:55;;;;;;;6.17;4.80;;;28.70;64.80;;;;;;5032244;28;20680;-72
2023/08/22 05:04:21;;;;;;;4.93;4.53;;;28.70;64.70;;;;;;5032328;28;20253;-73
2023/08/22 05:06:47;;;;;;;5.07;4.67;;;28.70;64.70;;;;;;5032147;28;20168;-73
2023/08/22 05:09:14;;;;;;;5.20;4.70;;;28.70;64.80;;;;;;5032010;28;20698;-72
2023/08/22 05:11:40;;;;;;;5.07;4.67;;;28.70;64.80;;;;;;5031948;28;20210;-73
2023/08/22 05:14:06;;;;;;;5.03;4.63;;;28.70;64.70;;;;;;5032126;28;20419;-73
2023/08/22 05:16:32;;;;;;;5.10;4.70;;;28.70;64.70;;;;;;5033164;28;20176;-73
2023/08/22 05:18:57;;;;;;;5.40;4.17;;;28.70;64.70;;;;;;5035866;28;20823;-71
2023/08/22 05:21:24;;;;;;;5.30;4.90;;;28.70;64.70;;;;;;5035975;28;20188;-73
2023/08/22 05:23:49;;;;;;;5.07;4.67;;;28.70;64.70;;;;;;5035807;28;20172;-73
2023/08/22 05:26:15;;;;;;;5.10;4.70;;;28.70;64.70;;;;;;5035796;28;20899;-72
2023/08/22 05:28:40;;;;;;;5.00;4.60;;;28.70;64.70;;;;;;5035850;28;20301;-73
2023/08/22 05:31:06;;;;;;;5.70;5.20;;;28.70;64.70;;;;;;5036031;28;20192;-73
2023/08/22 05:33:31;;;;;;;5.50;5.00;;;28.70;64.70;;;;;;5035928;28;20176;-72
2023/08/22 05:35:57;;;;;;;5.33;4.83;;;28.70;64.70;;;;;;5035976;28;20172;-72
2023/08/22 05:38:23;;;;;;;4.73;4.33;;;28.70;64.70;;;;;;5035662;28;20195;-72
2023/08/22 05:40:48;;;;;;;5.50;5.00;;;28.70;64.60;;;;;;5035625;28;20203;-73
2023/08/22 05:43:14;;;;;;;5.10;4.67;;;28.70;64.70;;;;;;5035520;28;20752;-72
2023/08/22 05:45:40;;;;;;;5.70;5.10;;;28.70;64.70;;;;;;5035405;28;20178;-72
2023/08/22 05:48:06;;;;;;;5.40;4.90;;;28.70;64.60;;;;;;5035460;28;20229;-71
2023/08/22 05:50:32;;;;;;;6.30;5.60;;;28.70;64.70;;;;;;5035495;28;20302;-72
2023/08/22 05:52:57;;;;;;;5.83;5.33;;;28.70;64.60;;;;;;5034150;28;20414;-72
2023/08/22 05:55:23;;;;;;;5.03;4.60;;;28.70;64.60;;;;;;5035435;28;20227;-71
2023/08/22 05:57:49;;;;;;;5.00;4.60;;;28.70;64.80;;;;;;5035263;28;20263;-70
2023/08/22 06:00:15;;;;;;;5.77;5.27;;;28.70;64.60;;;;;;5034107;28;20524;-71
2023/08/22 06:02:41;;;;;;;5.30;4.73;;;28.70;64.60;;;;;;5035231;28;20238;-71
2023/08/22 06:05:07;;;;;;;5.13;4.73;;;28.70;64.60;;;;;;5034931;28;20493;-72
2023/08/22 06:07:32;;;;;;;5.20;4.77;;;28.70;64.60;;;;;;5033615;28;20184;-72
2023/08/22 06:09:58;;;;;;;5.57;5.17;;;28.80;64.70;;;;;;5034766;28;20241;-71
2023/08/22 06:12:24;;;;;;;5.97;5.17;;;28.80;64.70;;;;;;5035065;28;20156;-72
2023/08/22 06:14:50;;;;;;;5.40;4.97;;;28.70;64.60;;;;;;5034897;28;20187;-72
2023/08/22 06:17:16;;;;;;;4.83;4.43;;;28.70;64.60;;;;;;5034900;28;20398;-72
2023/08/22 06:19:41;;;;;;;5.30;4.83;;;28.80;64.70;;;;;;5034999;28;20206;-71
2023/08/22 06:22:07;;;;;;;5.30;4.80;;;28.80;64.70;;;;;;5033380;28;20672;-72
2023/08/22 06:24:32;;;;;;;5.77;5.27;;;28.80;64.70;;;;;;5034790;28;20182;-72
2023/08/22 06:26:58;;;;;;;5.70;5.20;;;28.70;65.40;;;;;;5034617;28;20553;-72
2023/08/22 06:29:23;;;;;;;5.13;4.67;;;28.70;64.60;;;;;;5034472;28;20218;-72
2023/08/22 06:31:49;;;;;;;5.50;5.00;;;28.80;64.70;;;;;;5034486;28;20618;-71
2023/08/22 06:34:15;;;;;;;5.87;5.17;;;28.80;64.70;;;;;;5034498;28;20570;-72
2023/08/22 06:36:40;;;;;;;5.10;4.70;;;28.80;64.70;;;;;;5032964;28;20181;-72
2023/08/22 06:39:06;;;;;;;3.70;3.40;;;28.80;64.70;;;;;;5034744;28;20203;-70
2023/08/22 06:41:31;;;;;;;5.23;4.83;;;28.80;64.80;;;;;;5033104;28;20585;-71
2023/08/22 06:43:57;;;;;;;5.80;5.30;;;28.80;64.70;;;;;;5028628;28;20532;-73
2023/08/22 06:46:23;;;;;;;4.80;4.40;;;28.80;64.70;;;;;;5030854;28;20221;-73
2023/08/22 06:48:49;;;;;;;5.23;4.73;;;28.80;64.80;;;;;;5066523;28;20176;-74
2023/08/22 06:51:15;;;;;;;5.33;4.83;;;28.80;64.80;;;;;;5034154;28;20278;-73
2023/08/22 06:53:40;;;;;;;5.33;4.90;;;28.80;64.70;;;;;;5034260;28;20510;-72
2023/08/22 06:56:09;;;;;;;5.27;4.87;;;28.80;64.70;;;;;;5034137;28;20179;-72
2023/08/22 06:58:34;;;;;;;5.83;5.33;;;28.80;64.70;;;;;;5034324;28;20577;-72
2023/08/22 07:01:00;;;;;;;5.90;5.40;;;28.80;64.70;;;;;;5034156;28;20426;-73
2023/08/22 07:03:25;;;;;;;8.07;5.13;;;28.80;64.80;;;;;;5034349;28;20542;-72
2023/08/22 07:05:52;;;;;;;7.67;4.93;;;28.80;64.70;;;;;;5032279;28;20175;-73
2023/08/22 07:08:19;;;;;;;6.27;5.63;;;28.80;64.80;;;;;;5033042;28;20175;-73
2023/08/22 07:10:44;;;;;;;5.17;4.67;;;28.80;64.80;;;;;;5032620;28;20599;-73
2023/08/22 07:13:10;;;;;;;5.87;5.37;;;28.80;64.80;;;;;;5033788;28;20994;-73
2023/08/22 07:15:35;;;;;;;5.60;5.10;;;28.80;64.80;;;;;;5033468;28;20179;-73
2023/08/22 07:18:01;;;;;;;5.13;4.73;;;28.80;64.80;;;;;;5033528;28;20329;-72
2023/08/22 07:20:26;;;;;;;5.13;4.73;;;28.80;64.80;;;;;;5031201;28;20227;-73
2023/08/22 07:22:52;;;;;;;5.60;5.00;;;28.80;64.80;;;;;;5032670;28;20184;-73
2023/08/22 07:25:18;;;;;;;5.33;4.90;;;28.80;64.80;;;;;;5032536;28;20172;-73
2023/08/22 07:27:43;;;;;;;5.60;5.10;;;28.80;64.80;;;;;;5033602;28;20168;-73
2023/08/22 07:30:09;;;;;;;6.03;5.53;;;28.80;64.90;;;;;;5033588;28;20226;-73
2023/08/22 07:32:35;;;;;;;5.40;4.90;;;28.80;64.90;;;;;;5033358;28;20176;-72
2023/08/22 07:35:00;;;;;;;5.77;4.97;;;28.80;64.90;;;;;;5033580;28;20499;-71
2023/08/22 07:37:26;;;;;;;6.33;5.70;;;28.80;64.90;;;;;;5033557;28;20217;-72
2023/08/22 07:39:52;;;;;;;5.50;4.90;;;28.80;65.70;;;;;;5031448;28;20253;-73
2023/08/22 07:42:17;;;;;;;5.30;4.90;;;28.80;64.90;;;;;;5033286;28;20641;-72
2023/08/22 07:44:43;;;;;;;5.27;4.87;;;28.80;65.00;;;;;;5033361;28;20171;-72
2023/08/22 07:47:09;;;;;;;5.57;5.07;;;28.80;64.90;;;;;;5033275;28;20207;-73
2023/08/22 07:49:34;;;;;;;6.07;5.47;;;28.80;64.90;;;;;;5031399;28;20229;-71
2023/08/22 07:52:00;;;;;;;6.40;4.80;;;28.80;65.00;;;;;;5033019;28;20196;-72
2023/08/22 07:54:26;;;;;;;6.50;5.83;;;28.80;65.00;;;;;;5031061;28;20206;-73
2023/08/22 07:56:52;;;;;;;6.20;5.60;;;28.80;65.00;;;;;;5031440;28;20176;-73
2023/08/22 07:59:17;;;;;;;8.30;5.30;;;28.80;65.00;;;;;;5031341;28;20203;-73
2023/08/22 08:01:43;;;;;;;6.17;5.57;;;28.80;65.10;;;;;;5032121;28;20188;-73
2023/08/22 08:04:09;;;;;;;7.03;6.30;;;28.80;65.10;;;;;;5032479;28;20522;-72
2023/08/22 08:06:35;;;;;;;6.00;5.50;;;28.80;65.10;;;;;;5032016;28;20489;-72
2023/08/22 08:09:04;;;;;;;6.73;6.13;;;28.80;65.10;;;;;;5032638;28;20172;-72
2023/08/22 08:11:30;;;;;;;6.60;5.50;;;28.80;65.10;;;;;;5032604;28;20503;-73
2023/08/22 08:13:56;;;;;;;5.97;5.47;;;28.90;65.20;;;;;;5032514;28;20410;-72
2023/08/22 08:16:22;;;;;;;5.70;5.20;;;28.80;65.10;;;;;;5032723;28;20410;-72
2023/08/22 08:18:50;;;;;;;6.50;5.43;;;28.90;65.20;;;;;;5032577;28;20456;-73
2023/08/22 08:21:15;;;;;;;7.17;6.20;;;28.80;65.10;;;;;;5032547;28;20430;-72
2023/08/22 08:23:43;;;;;;;5.90;5.40;;;28.90;65.20;;;;;;5032651;28;20488;-72
2023/08/22 08:26:08;;;;;;;6.87;5.53;;;28.90;65.20;;;;;;5031292;28;20176;-73
2023/08/22 08:28:34;;;;;;;6.33;5.80;;;28.90;65.20;;;;;;5031484;28;20418;-73
2023/08/22 08:30:59;;;;;;;6.27;5.70;;;28.80;65.10;;;;;;5031304;28;20735;-72
2023/08/22 08:33:25;;;;;;;5.00;4.60;;;28.90;65.20;;;;;;5032388;28;20645;-71
2023/08/22 08:35:51;;;;;;;5.97;5.47;;;28.90;65.20;;;;;;5032456;28;20167;-72
2023/08/22 08:38:16;;;;;;;6.50;6.00;;;28.90;65.20;;;;;;5032719;28;20460;-72
2023/08/22 08:40:44;;;;;;;6.00;5.07;;;28.90;65.20;;;;;;5032445;28;20667;-72
2023/08/22 08:43:10;;;;;;;5.57;5.07;;;28.90;65.20;;;;;;5032429;28;20167;-73
2023/08/22 08:45:36;;;;;;;6.70;6.10;;;28.80;65.10;;;;;;5032297;28;20417;-72
2023/08/22 08:48:03;;;;;;;6.63;6.03;;;28.90;65.20;;;;;;5032206;28;20176;-73
2023/08/22 08:50:30;;;;;;;6.10;5.50;;;28.90;65.20;;;;;;5033220;28;20426;-72
2023/08/22 08:52:56;;;;;;;6.70;6.10;;;28.90;65.30;;;;;;5036608;28;20438;-73
2023/08/22 08:55:22;;;;;;;5.93;5.43;;;28.90;65.30;;;;;;5036416;28;20906;-72
2023/08/22 08:57:47;;;;;;;5.33;4.83;;;28.90;65.20;;;;;;5036267;28;20171;-72
2023/08/22 09:00:17;;;;;;;5.67;5.17;;;28.90;65.20;;;;;;5036364;28;20194;-72
2023/08/22 09:02:44;;;;;;;6.27;5.67;;;28.90;65.20;;;;;;5036251;28;20171;-72
2023/08/22 09:05:11;;;;;;;5.70;5.10;;;28.90;65.20;;;;;;5036366;28;20406;-72
2023/08/22 09:07:37;;;;;;;5.93;5.43;;;28.90;65.20;;;;;;5036460;28;20450;-72
2023/08/22 09:10:04;;;;;;;5.73;5.23;;;28.90;65.20;;;;;;5035872;28;20522;-73
2023/08/22 09:12:36;;;;;;;5.30;4.90;;;28.90;65.20;;;;;;5036069;28;20402;-72
2023/08/22 09:15:03;;;;;;;5.23;4.73;;;28.90;65.30;;;;;;5036025;28;20509;-72
2023/08/22 09:17:29;;;;;;;5.53;5.03;;;28.90;65.30;;;;;;5036392;28;20416;-72
2023/08/22 09:19:55;;;;;;;6.00;5.50;;;28.90;65.20;;;;;;5035452;28;21020;-72
2023/08/22 09:22:28;;;;;;;6.03;5.53;;;28.90;65.20;;;;;;5035755;28;20410;-72
2023/08/22 09:24:54;;;;;;;5.37;4.70;;;28.90;65.30;;;;;;5034538;28;20460;-71
2023/08/22 09:27:27;;;;;;;6.93;6.03;;;28.90;65.20;;;;;;5035842;28;20410;-72
2023/08/22 09:30:04;;;;;;;5.73;5.13;;;28.90;65.20;;;;;;5035967;28;20203;-71
2023/08/22 09:32:30;;;;;;;6.20;5.70;;;28.90;65.20;;;;;;5036013;28;20911;-71
2023/08/22 09:35:01;;;;;;;6.50;5.40;;;28.90;65.20;;;;;;5035697;28;20442;-72
2023/08/22 09:37:30;;;;;;;6.10;5.60;;;28.90;65.20;;;;;;5035615;28;20152;-72
2023/08/22 09:39:56;;;;;;;5.93;5.43;;;28.90;65.20;;;;;;5035704;28;20462;-71
2023/08/22 09:42:23;;;;;;;5.50;5.10;;;28.90;65.20;;;;;;5035658;28;20402;-72
2023/08/22 09:44:50;;;;;;;6.10;5.60;;;28.90;65.30;;;;;;5035470;28;20175;-71
2023/08/22 09:47:16;;;;;;;6.23;5.73;;;28.90;65.20;;;;;;5035354;28;20411;-72
2023/08/22 09:49:45;;;;;;;6.03;5.50;;;28.90;65.20;;;;;;5035351;28;20417;-72
2023/08/22 09:52:13;;;;;;;5.70;5.20;;;28.90;65.20;;;;;;5035019;28;20487;-72
2023/08/22 09:54:41;;;;;;;6.83;5.43;;;28.90;65.20;;;;;;5035240;28;20418;-72
2023/08/22 09:57:08;;;;;;;5.93;5.47;;;28.90;65.20;;;;;;5034386;28;20436;-72
2023/08/22 09:59:33;;;;;;;6.03;5.53;;;29.00;65.30;;;;;;5035144;28;20974;-72
2023/08/22 10:02:00;;;;;;;6.17;5.67;;;28.90;65.20;;;;;;5034387;28;20556;-72
2023/08/22 10:04:27;;;;;;;6.40;5.90;;;29.00;65.30;;;;;;5034917;28;20492;-72
2023/08/22 10:06:52;;;;;;;6.23;5.50;;;29.00;65.30;;;;;;5035029;28;20540;-71
2023/08/22 10:09:18;;;;;;;5.90;5.40;;;29.00;65.30;;;;;;5034963;28;20442;-73
2023/08/22 10:11:48;;;;;;;7.47;6.00;;;29.00;65.30;;;;;;5034996;28;20218;-71
2023/08/22 10:14:29;;;;;;;6.60;5.60;;;29.00;65.30;;;;;;5034953;28;20246;-72
2023/08/22 10:16:55;;;;;;;5.70;5.20;;;29.00;65.30;;;;;;5034930;28;20409;-73
2023/08/22 10:19:24;;;;;;;6.97;6.37;;;29.00;65.30;;;;;;5034708;28;20507;-72
2023/08/22 10:21:53;;;;;;;6.23;5.73;;;29.00;65.30;;;;;;5034637;28;20517;-72
2023/08/22 10:24:39;;;;;;;6.50;6.00;;;29.00;65.30;;;;;;5034701;28;20410;-71
2023/08/22 10:27:07;;;;;;;6.17;5.67;;;29.00;65.30;;;;;;5034207;28;20930;-72
2023/08/22 10:29:46;;;;;;;8.60;5.83;;;29.00;65.30;;;;;;5035182;28;20406;-72
2023/08/22 10:32:12;;;;;;;5.93;5.40;;;29.00;65.30;;;;;;5034848;28;20472;-73
2023/08/22 10:34:37;;;;;;;5.87;5.37;;;29.00;66.10;;;;;;5035064;28;20414;-71
2023/08/22 10:37:04;;;;;;;6.90;5.60;;;29.00;65.30;;;;;;5033756;28;20656;-71
2023/08/22 10:39:40;;;;;;;8.17;5.97;;;29.00;65.30;;;;;;5034072;28;20193;-72
2023/08/22 10:42:06;;;;;;;7.17;6.47;;;29.00;65.20;;;;;;5034322;28;20481;-72
2023/08/22 10:44:32;;;;;;;7.60;6.70;;;29.00;65.30;;;;;;5034302;28;20415;-72
2023/08/22 10:47:15;;;;;;;6.53;5.93;;;29.00;65.20;;;;;;5034148;28;20468;-72
2023/08/22 10:49:42;;;;;;;6.77;6.10;;;29.00;65.20;;;;;;5034199;28;20167;-70
2023/08/22 10:52:12;;;;;;;6.60;5.87;;;29.00;65.20;;;;;;5034314;28;20427;-71
2023/08/22 10:54:57;;;;;;;6.80;6.20;;;29.00;65.20;;;;;;5066071;28;20469;-71
2023/08/22 10:57:24;;;;;;;6.57;5.97;;;29.00;65.20;;;;;;5031692;28;20472;-71
2023/08/22 10:59:59;;;;;;;5.60;5.10;;;29.00;66.00;;;;;;5032318;28;20454;-72
2023/08/22 11:02:30;;;;;;;6.33;5.80;;;29.00;65.20;;;;;;5034033;28;20406;-72
2023/08/22 11:04:57;;;;;;;5.97;5.43;;;29.00;65.20;;;;;;5033596;28;20403;-71
2023/08/22 11:07:25;;;;;;;6.23;5.60;;;29.00;65.30;;;;;;5033830;28;20418;-71
2023/08/22 11:09:50;;;;;;;6.40;5.80;;;29.00;65.20;;;;;;5033465;28;20842;-72
2023/08/22 11:12:18;;;;;;;6.10;5.60;;;29.00;65.10;;;;;;5032729;28;20422;-70
2023/08/22 11:14:48;;;;;;;6.23;5.63;;;29.00;65.10;;;;;;5032597;28;20195;-72
2023/08/22 11:17:15;;;;;;;6.23;5.70;;;29.00;65.10;;;;;;5033402;28;20424;-71
2023/08/22 11:19:44;;;;;;;6.13;5.63;;;29.00;65.20;;;;;;5033674;28;20486;-71
2023/08/22 11:22:11;;;;;;;5.50;5.00;;;29.00;65.10;;;;;;5033222;28;20447;-72
2023/08/22 11:24:37;;;;;;;6.27;5.77;;;29.00;65.10;;;;;;5033574;28;20497;-71
2023/08/22 11:27:06;;;;;;;6.40;5.87;;;29.00;65.10;;;;;;5033304;28;20491;-71
2023/08/22 11:29:43;;;;;;;6.47;5.97;;;29.00;65.10;;;;;;5031787;28;20892;-71
2023/08/22 11:32:25;;;;;;;6.27;5.67;;;29.00;65.10;;;;;;5033073;28;20441;-71
2023/08/22 11:34:55;;;;;;;6.00;5.50;;;29.00;65.10;;;;;;5031702;28;20802;-71
2023/08/22 11:37:22;;;;;;;6.30;5.70;;;29.00;65.10;;;;;;5033278;28;20410;-71
2023/08/22 11:39:52;;;;;;;5.90;5.30;;;29.00;65.10;;;;;;5033070;28;20822;-72
2023/08/22 11:42:19;;;;;;;5.37;4.97;;;29.10;65.20;;;;;;5032912;28;20415;-72
2023/08/22 11:44:53;;;;;;;6.70;5.70;;;29.00;65.10;;;;;;5032848;28;20493;-72
2023/08/22 11:47:19;;;;;;;6.00;5.50;;;29.10;65.20;;;;;;5033095;28;20403;-72
2023/08/22 11:49:49;;;;;;;6.17;5.67;;;29.00;65.10;;;;;;5033327;28;20776;-72
2023/08/22 11:52:14;;;;;;;5.83;5.33;;;29.00;65.10;;;;;;5032700;28;20191;-72
2023/08/22 11:54:44;;;;;;;6.47;5.07;;;29.10;65.20;;;;;;5032812;28;20441;-73
2023/08/22 11:57:11;;;;;;;5.90;5.40;;;29.10;65.20;;;;;;5032724;28;20214;-72
2023/08/22 11:59:37;;;;;;;6.13;5.10;;;29.10;65.20;;;;;;5033162;28;20875;-71
2023/08/22 12:02:03;;;;;;;5.90;5.40;;;29.00;65.10;;;;;;5031445;28;20438;-72
2023/08/22 12:04:45;;;;;;;5.90;5.40;;;29.10;65.20;;;;;;5032799;28;20180;-72
2023/08/22 12:07:10;;;;;;;5.87;5.37;;;29.10;65.20;;;;;;5032576;28;20172;-72
2023/08/22 12:09:36;;;;;;;5.87;5.37;;;29.10;65.20;;;;;;5032733;28;20792;-71
2023/08/22 12:12:14;;;;;;;5.17;4.77;;;29.00;65.10;;;;;;5032380;28;20211;-72
2023/08/22 12:14:39;;;;;;;5.50;5.10;;;29.10;65.20;;;;;;5031204;28;20425;-71
2023/08/22 12:17:05;;;;;;;6.07;5.57;;;29.10;65.20;;;;;;5032492;28;20414;-70
2023/08/22 12:19:30;;;;;;;6.70;4.50;;;29.10;65.20;;;;;;5032408;28;20199;-71
2023/08/22 12:21:57;;;;;;;6.10;5.47;;;29.10;65.20;;;;;;5030850;28;20203;-71
2023/08/22 12:24:23;;;;;;;5.10;4.70;;;29.10;65.20;;;;;;5031108;28;20254;-70
2023/08/22 12:26:48;;;;;;;5.27;4.43;;;29.10;65.20;;;;;;5032356;28;20417;-72
2023/08/22 12:29:14;;;;;;;5.30;4.80;;;29.10;65.20;;;;;;5032400;28;20789;-72
2023/08/22 12:31:40;;;;;;;5.00;4.50;;;29.10;65.20;;;;;;5032532;28;20199;-72
2023/08/22 12:34:05;;;;;;;5.70;5.20;;;29.10;65.20;;;;;;5032365;28;20204;-73
2023/08/22 12:36:31;;;;;;;5.43;4.93;;;29.10;65.10;;;;;;5032603;28;20183;-70
2023/08/22 12:38:56;;;;;;;5.80;5.30;;;29.10;65.20;;;;;;5032093;28;20191;-72
2023/08/22 12:41:22;;;;;;;5.50;5.00;;;29.10;65.10;;;;;;5032149;28;20280;-72
2023/08/22 12:43:47;;;;;;;5.03;4.53;;;29.10;65.10;;;;;;5032291;28;20176;-72
2023/08/22 12:46:13;;;;;;;7.00;5.17;;;29.10;65.20;;;;;;5032021;28;20167;-72